Map

Track Data

SID SEASON NUMBER BASIN SUBBASIN NAME ISO_TIME NATURE LAT LON WMO_WIND WMO_PRES WMO_AGENCY TRACK_TYPE DIST2LAND LANDFALL IFLAG USA_AGENCY USA_ATCF_ID USA_LAT USA_LON USA_RECORD USA_STATUS USA_WIND USA_PRES USA_SSHS USA_R34_NE USA_R34_SE USA_R34_SW USA_R34_NW USA_R50_NE USA_R50_SE USA_R50_SW USA_R50_NW USA_R64_NE USA_R64_SE USA_R64_SW USA_R64_NW USA_POCI USA_ROCI USA_RMW USA_EYE TOKYO_LAT TOKYO_LON TOKYO_GRADE TOKYO_WIND TOKYO_PRES TOKYO_R50_DIR TOKYO_R50_LONG TOKYO_R50_SHORT TOKYO_R30_DIR TOKYO_R30_LONG TOKYO_R30_SHORT TOKYO_LAND CMA_LAT CMA_LON CMA_CAT CMA_WIND CMA_PRES HKO_LAT HKO_LON HKO_CAT HKO_WIND HKO_PRES NEWDELHI_LAT NEWDELHI_LON NEWDELHI_GRADE NEWDELHI_WIND NEWDELHI_PRES NEWDELHI_CI NEWDELHI_DP NEWDELHI_POCI REUNION_LAT REUNION_LON REUNION_TYPE REUNION_WIND REUNION_PRES REUNION_TNUM REUNION_CI REUNION_RMW REUNION_R34_NE REUNION_R34_SE REUNION_R34_SW REUNION_R34_NW REUNION_R50_NE REUNION_R50_SE REUNION_R50_SW REUNION_R50_NW REUNION_R64_NE REUNION_R64_SE REUNION_R64_SW REUNION_R64_NW BOM_LAT BOM_LON BOM_TYPE BOM_WIND BOM_PRES BOM_TNUM BOM_CI BOM_RMW BOM_R34_NE BOM_R34_SE BOM_R34_SW BOM_R34_NW BOM_R50_NE BOM_R50_SE BOM_R50_SW BOM_R50_NW BOM_R64_NE BOM_R64_SE BOM_R64_SW BOM_R64_NW BOM_ROCI BOM_POCI BOM_EYE BOM_POS_METHOD BOM_PRES_METHOD NADI_LAT NADI_LON NADI_CAT NADI_WIND NADI_PRES WELLINGTON_LAT WELLINGTON_LON WELLINGTON_WIND WELLINGTON_PRES DS824_LAT DS824_LON DS824_STAGE DS824_WIND DS824_PRES TD9636_LAT TD9636_LON TD9636_STAGE TD9636_WIND TD9636_PRES TD9635_LAT TD9635_LON TD9635_WIND TD9635_PRES TD9635_ROCI NEUMANN_LAT NEUMANN_LON NEUMANN_CLASS NEUMANN_WIND NEUMANN_PRES MLC_LAT MLC_LON MLC_CLASS MLC_WIND MLC_PRES USA_GUST BOM_GUST BOM_GUST_PER REUNION_GUST REUNION_GUST_PER USA_SEAHGT USA_SEARAD_NE USA_SEARAD_SE USA_SEARAD_SW USA_SEARAD_NW STORM_SPEED STORM_DIR
1945253N08157 1945 58 WP MM IDA 1945-09-10 00:00:00 TS 8.00000 157.000 main 1375 1370 O________OOO__ jtwc_wp WP181945 8.00000 157.000 30 -1 8.00000 157.000 TC 30 8.00000 157.000 1 30 8.00000 157.000 30 1001 60 11 297
1945253N08157 1945 58 WP MM IDA 1945-09-10 03:00:00 TS 8.25014 156.501 main 1380 1370 P________PPP__ WP181945 8.25265 156.490 30 -1 8.25265 156.490 TC 30 8.24263 156.532 1 30 8.25265 156.490 30 1001 120 11 297
1945253N08157 1945 58 WP MM IDA 1945-09-10 06:00:00 TS 8.49700 156.015 main 1376 1372 O________OPO__ jtwc_wp WP181945 8.50000 156.000 30 -1 8.50000 156.000 TC 30 8.48801 156.060 1 30 8.50000 156.000 30 1001 180 11 298
1945253N08157 1945 58 WP MM IDA 1945-09-10 09:00:00 TS 8.74166 155.553 main 1379 1379 P________PPP__ WP181945 8.74242 155.542 30 -1 8.74242 155.542 TC 30 8.73938 155.584 1 30 8.74242 155.542 30 1001 270 10 299
1945253N08157 1945 58 WP MM IDA 1945-09-10 12:00:00 TS 9.00000 155.100 main 1391 1387 O________OOO__ jtwc_wp WP181945 9.00000 155.100 30 -1 9.00000 155.100 TC 30 9.00000 155.100 1 30 9.00000 155.100 30 1001 360 10 302
1945253N08157 1945 58 WP MM IDA 1945-09-10 15:00:00 TS 9.29801 154.656 main 1409 1405 P________PPP__ WP181945 9.30735 154.672 30 -1 9.30735 154.672 TC 30 9.27000 154.606 1 31 9.30735 154.672 30 1001 330 11 303
1945253N08157 1945 58 WP MM IDA 1945-09-10 18:00:00 TS 9.58426 154.174 main 1426 1423 O________OPO__ jtwc_wp WP181945 9.60000 154.200 30 -1 9.60000 154.200 TC 30 9.53702 154.095 1 32 9.60000 154.200 30 1001 300 12 296
1945253N08157 1945 58 WP MM IDA 1945-09-10 21:00:00 TS 9.81326 153.607 main 1432 1430 P________PPP__ WP181945 9.82250 153.622 32 -1 9.82250 153.622 TC 32 9.78554 153.562 1 33 9.82250 153.622 32 1001 270 12 290
1945253N08157 1945 58 WP MM IDA 1945-09-11 00:00:00 TS 10.0000 153.000 main 1441 1438 O________OOO__ jtwc_wp WP181945 10.0000 153.000 35 0 10.0000 153.000 TC 35 10.0000 153.000 2 35 10.0000 153.000 35 1001 240 12 287
1945253N08157 1945 58 WP MM IDA 1945-09-11 03:00:00 TS 10.1638 152.406 main 1454 1450 P________PPP__ WP181945 10.1648 152.407 35 0 10.1648 152.407 TC 35 10.1608 152.403 2 35 10.1648 152.407 35 1000 240 12 284
1945253N08157 1945 58 WP MM IDA 1945-09-11 06:00:00 TS 10.2968 151.795 main 1460 1458 O________OPO__ jtwc_wp WP181945 10.3000 151.800 35 0 10.3000 151.800 TC 35 10.2873 151.779 2 35 10.3000 151.800 35 1000 240 13 281
1945253N08157 1945 58 WP MM IDA 1945-09-11 09:00:00 TS 10.4043 151.153 main 1462 1452 P________PPP__ WP181945 10.4074 151.157 35 0 10.4074 151.157 TC 35 10.3952 151.141 2 35 10.4074 151.157 35 1000 210 13 279
1945253N08157 1945 58 WP MM IDA 1945-09-11 12:00:00 TS 10.5000 150.500 main 1452 1445 O________OOO__ jtwc_wp WP181945 10.5000 150.500 35 0 10.5000 150.500 TC 35 10.5000 150.500 2 35 10.5000 150.500 35 1000 180 13 279
1945253N08157 1945 58 WP MM IDA 1945-09-11 15:00:00 TS 10.5985 149.848 main 1447 1443 P________PPP__ WP181945 10.5924 149.842 37 0 10.5924 149.842 TC 37 10.6166 149.867 2 36 10.5924 149.842 37 1000 180 13 279
1945253N08157 1945 58 WP MM IDA 1945-09-11 18:00:00 TS 10.7087 149.209 main 1448 1445 O________OPO__ jtwc_wp WP181945 10.7000 149.200 40 0 10.7000 149.200 TC 40 10.7347 149.235 2 37 10.7000 149.200 40 1000 180 13 282
1945253N08157 1945 58 WP MM IDA 1945-09-11 21:00:00 TS 10.8525 148.597 main 1462 1459 P________PPP__ WP181945 10.8498 148.593 40 0 10.8498 148.593 TC 40 10.8604 148.610 2 38 10.8498 148.593 40 999 240 12 284
1945253N08157 1945 58 WP MM IDA 1945-09-12 00:00:00 TS 11.0000 148.000 main 1469 1468 O________OOO__ jtwc_wp WP181945 11.0000 148.000 40 0 11.0000 148.000 TC 40 11.0000 148.000 2 40 11.0000 148.000 40 999 300 12 282
1945253N08157 1945 58 WP MM IDA 1945-09-12 03:00:00 TS 11.1027 147.396 main 1479 1479 P________PPP__ WP181945 11.0849 147.392 40 0 11.0849 147.392 TC 40 11.1561 147.406 2 41 11.0849 147.392 40 998 270 12 281
1945253N08157 1945 58 WP MM IDA 1945-09-12 06:00:00 TS 11.2317 146.807 main 1490 1490 O________OPO__ jtwc_wp WP181945 11.2000 146.800 40 0 11.2000 146.800 TC 40 11.3270 146.827 2 42 11.2000 146.800 40 998 240 12 288
1945253N08157 1945 58 WP MM IDA 1945-09-12 09:00:00 TS 11.4591 146.247 main 1524 1524 P________PPP__ WP181945 11.4424 146.243 42 0 11.4424 146.243 TC 42 11.5093 146.260 2 43 11.4424 146.243 42 997 270 12 293
1945253N08157 1945 58 WP MM IDA 1945-09-12 12:00:00 TS 11.7000 145.700 main 1549 1549 O________OOO__ jtwc_wp WP181945 11.7000 145.700 45 0 11.7000 145.700 TC 45 11.7000 145.700 2 45 11.7000 145.700 45 997 300 11 290
1945253N08157 1945 58 WP MM IDA 1945-09-12 15:00:00 TS 11.8585 145.151 main 1576 1576 P________PPP__ WP181945 11.8499 145.150 45 0 11.8499 145.150 TC 45 11.8841 145.155 2 46 11.8499 145.150 45 996 300 11 287
1945253N08157 1945 58 WP MM IDA 1945-09-12 18:00:00 TS 12.0192 144.604 main 1595 1595 O________OPO__ jtwc_wp WP181945 12.0000 144.600 45 0 12.0000 144.600 TC 45 12.0767 144.614 2 47 12.0000 144.600 45 996 300 11 290
1945253N08157 1945 58 WP MM IDA 1945-09-12 21:00:00 TS 12.2464 144.060 main 1625 1625 P________PPP__ WP181945 12.2348 144.057 47 0 12.2348 144.057 TC 47 12.2810 144.067 2 48 12.2348 144.057 47 994 360 12 294
1945253N08157 1945 58 WP MM IDA 1945-09-13 00:00:00 TS 12.5000 143.500 main 1671 1671 O________OOO__ jtwc_wp WP181945 12.5000 143.500 50 0 12.5000 143.500 TC 50 12.5000 143.500 2 50 12.5000 143.500 50 993 420 12 294
1945253N08157 1945 58 WP MM IDA 1945-09-13 03:00:00 TS 12.7463 142.910 main 1684 1684 P________PPP__ WP181945 12.7499 142.915 52 0 12.7499 142.915 TC 52 12.7354 142.896 2 51 12.7499 142.915 52 991 360 13 293
1945253N08157 1945 58 WP MM IDA 1945-09-13 06:00:00 TS 12.9962 142.293 main 1697 1692 O________OPO__ jtwc_wp WP181945 13.0000 142.300 55 0 13.0000 142.300 TC 55 12.9847 142.272 2 52 13.0000 142.300 55 990 300 13 292
1945253N08157 1945 58 WP MM IDA 1945-09-13 09:00:00 TS 13.2535 141.652 main 1704 1675 P________PPP__ WP181945 13.2574 141.657 55 0 13.2574 141.657 TC 55 13.2416 141.637 2 53 13.2574 141.657 55 989 270 14 292
1945253N08157 1945 58 WP MM IDA 1945-09-13 12:00:00 TS 13.5000 141.000 main 1675 1615 O________OOO__ jtwc_wp WP181945 13.5000 141.000 55 0 13.5000 141.000 TC 55 13.5000 141.000 2 55 13.5000 141.000 55 988 240 13 290
1945253N08157 1945 58 WP MM IDA 1945-09-13 15:00:00 TS 13.7036 140.353 main 1615 1555 P________PPP__ WP181945 13.6924 140.342 55 0 13.6924 140.342 TC 55 13.7371 140.386 2 56 13.6924 140.342 55 987 270 13 289
1945253N08157 1945 58 WP MM IDA 1945-09-13 18:00:00 TS 13.9191 139.718 main 1544 1498 O________OPO__ jtwc_wp WP181945 13.9000 139.700 55 0 13.9000 139.700 TC 55 13.9765 139.771 2 57 13.9000 139.700 55 987 300 13 293
1945253N08157 1945 58 WP MM IDA 1945-09-13 21:00:00 TS 14.2010 139.123 main 1487 1430 P________PPP__ WP181945 14.1921 139.115 57 0 14.1921 139.115 TC 57 14.2277 139.146 2 58 14.1921 139.115 57 986 330 13 296
1945253N08157 1945 58 WP MM IDA 1945-09-14 00:00:00 TS 14.5000 138.500 main 1430 1359 O________OOO__ jtwc_wp WP181945 14.5000 138.500 60 0 14.5000 138.500 TC 60 14.5000 138.500 2 60 14.5000 138.500 60 986 360 14 293
1945253N08157 1945 58 WP MM IDA 1945-09-14 03:00:00 TS 14.7481 137.772 main 1359 1292 P________PPP__ WP181945 14.7351 137.757 60 0 14.7351 137.757 TC 60 14.7870 137.817 2 60 14.7351 137.757 60 986 330 15 290
1945253N08157 1945 58 WP MM IDA 1945-09-14 06:00:00 TS 15.0243 137.029 main 1282 1230 O________OPO__ jtwc_wp WP181945 15.0000 137.000 60 0 15.0000 137.000 TC 60 15.0972 137.114 2 60 15.0000 137.000 60 986 300 15 295
1945253N08157 1945 58 WP MM IDA 1945-09-14 09:00:00 TS 15.3969 136.363 main 1230 1172 P________PPP__ WP181945 15.3845 136.350 60 0 15.3845 136.350 TC 60 15.4338 136.404 2 60 15.3845 136.350 60 985 300 15 301
1945253N08157 1945 58 WP MM IDA 1945-09-14 12:00:00 TS 15.8000 135.700 main 1172 1113 O________OOO__ jtwc_wp WP181945 15.8000 135.700 60 0 15.8000 135.700 TC 60 15.8000 135.700 2 60 15.8000 135.700 60 985 300 16 299
1945253N08157 1945 58 WP MM IDA 1945-09-14 15:00:00 TS 16.1422 134.956 main 1113 1058 P________PPP__ WP181945 16.1351 134.942 60 0 16.1351 134.942 TC 60 16.1635 134.997 2 60 16.1351 134.942 60 984 300 16 297
1945253N08157 1945 58 WP MM IDA 1945-09-14 18:00:00 TS 16.5149 134.226 main 1053 1018 O________OPO__ jtwc_wp WP181945 16.5000 134.200 60 0 16.5000 134.200 TC 60 16.5598 134.304 2 60 16.5000 134.200 60 984 300 16 302
1945253N08157 1945 58 WP MM IDA 1945-09-14 21:00:00 TS 16.9607 133.586 main 1023 1000 P________PPP__ WP181945 16.9472 133.570 60 0 16.9472 133.570 TC 60 17.0011 133.634 2 60 16.9472 133.570 60 984 330 15 310
1945253N08157 1945 58 WP MM IDA 1945-09-15 00:00:00 TS 17.5000 133.000 main 1000 980 O________OOO__ jtwc_wp WP181945 17.5000 133.000 60 0 17.5000 133.000 TC 60 17.5000 133.000 2 60 17.5000 133.000 60 984 360 16 317
1945253N08157 1945 58 WP MM IDA 1945-09-15 03:00:00 TS 18.1559 132.431 main 981 970 P________PPP__ WP181945 18.1923 132.442 62 0 18.1923 132.442 TC 62 18.0466 132.397 2 61 18.1923 132.442 62 983 390 17 322
1945253N08157 1945 58 WP MM IDA 1945-09-15 06:00:00 TS 18.8380 131.883 main 970 959 O________OPO__ jtwc_wp WP181945 18.9000 131.900 65 1 18.9000 131.900 TC 65 18.6518 131.831 2 62 18.9000 131.900 65 982 420 16 320
1945253N08157 1945 58 WP MM IDA 1945-09-15 09:00:00 TS 19.4083 131.331 main 953 910 P________PPP__ WP181945 19.4424 131.342 65 1 19.4424 131.342 TC 65 19.3062 131.300 2 63 19.4424 131.342 65 981 420 16 319
1945253N08157 1945 58 WP MM IDA 1945-09-15 12:00:00 TS 20.0000 130.800 main 910 873 O________OOO__ jtwc_wp WP181945 20.0000 130.800 65 1 20.0000 130.800 TC 65 20.0000 130.800 3 65 20.0000 130.800 65 980 420 16 323
1945253N08157 1945 58 WP MM IDA 1945-09-15 15:00:00 TS 20.7174 130.277 main 876 852 P________PPP__ WP181945 20.7199 130.277 65 1 20.7199 130.277 TC 65 20.7099 130.277 3 65 20.7199 130.277 65 979 360 18 328
1945253N08157 1945 58 WP MM IDA 1945-09-15 18:00:00 TS 21.4888 129.797 main 856 807 O________OPO__ jtwc_wp WP181945 21.5000 129.800 65 1 21.5000 129.800 TC 65 21.4551 129.788 3 65 21.5000 129.800 65 978 300 18 331
1945253N08157 1945 58 WP MM IDA 1945-09-15 21:00:00 TS 22.2431 129.366 main 807 741 P________PPP__ WP181945 22.2499 129.370 65 1 22.2499 129.370 TC 65 22.2227 129.355 3 65 22.2499 129.370 65 976 330 17 334
1945253N08157 1945 58 WP MM IDA 1945-09-16 00:00:00 TS 23.0000 129.000 main 741 693 O________OOO__ jtwc_wp WP181945 23.0000 129.000 65 1 23.0000 129.000 TC 65 23.0000 129.000 4 65 23.0000 129.000 65 975 360 17 336
1945253N08157 1945 58 WP MM IDA 1945-09-16 03:00:00 TS 23.7506 128.648 main 681 648 P________PPP__ WP181945 23.7425 128.648 65 1 23.7425 128.648 TC 65 23.7750 128.650 4 66 23.7425 128.648 65 973 390 16 340
1945253N08157 1945 58 WP MM IDA 1945-09-16 06:00:00 TS 24.5140 128.398 main 648 634 O________OPO__ jtwc_wp WP181945 24.5000 128.400 65 1 24.5000 128.400 TC 65 24.5561 128.391 4 67 24.5000 128.400 65 972 420 16 347
1945253N08157 1945 58 WP MM IDA 1945-09-16 09:00:00 TS 25.2971 128.255 main 634 594 P________PPP__ WP181945 25.2848 128.253 67 1 25.2848 128.253 TC 67 25.3342 128.261 4 68 25.2848 128.253 67 971 390 16 357
1945253N08157 1945 58 WP MM IDA 1945-09-16 12:00:00 TS 26.1000 128.300 main 594 505 O________OOO__ jtwc_wp WP181945 26.1000 128.300 70 1 26.1000 128.300 TC 70 26.1000 128.300 4 70 26.1000 128.300 70 970 360 17 9
1945253N08157 1945 58 WP MM IDA 1945-09-16 15:00:00 TS 26.9371 128.538 main 505 407 P________PPP__ WP181945 26.9800 128.567 70 1 26.9800 128.567 TC 70 26.8085 128.450 4 70 26.9800 128.567 70 969 360 17 19
1945253N08157 1945 58 WP MM IDA 1945-09-16 18:00:00 TS 27.7271 128.946 main 407 326 O________OPO__ jtwc_wp WP181945 27.8000 129.000 70 1 27.8000 129.000 TC 70 27.5083 128.782 4 70 27.8000 129.000 70 969 360 16 28
1945253N08157 1945 58 WP MM IDA 1945-09-16 21:00:00 TS 28.3452 129.379 main 326 233 P________PPP__ WP181945 28.3839 129.406 70 1 28.3839 129.406 TC 70 28.2291 129.298 4 70 28.3839 129.406 70 969 330 16 36
1945253N08157 1945 58 WP MM IDA 1945-09-17 00:00:00 TS 29.0000 130.000 main 233 134 O________OOO__ jtwc_wp WP181945 29.0000 130.000 70 1 29.0000 130.000 TC 70 29.0000 130.000 4 70 29.0000 130.000 70 969 300 20 40
1945253N08157 1945 58 WP MM IDA 1945-09-17 03:00:00 TS 29.8996 130.894 main 124 82 P________PPP__ WP181945 29.9127 130.902 67 1 29.9127 130.902 TC 67 29.8602 130.869 4 68 29.9127 130.902 67 970 330 25 43
1945253N08157 1945 58 WP MM IDA 1945-09-17 06:00:00 TS 30.8664 131.981 main 79 79 O________OPO__ jtwc_wp WP181945 30.9000 132.000 65 1 30.9000 132.000 TC 65 30.7657 131.923 4 67 30.9000 132.000 65 972 360 27 46
1945253N08157 1945 58 WP MM IDA 1945-09-17 09:00:00 TS 31.7399 133.125 main 111 66 P________PPP__ WP181945 31.7572 133.137 65 1 31.7572 133.137 TC 65 31.6877 133.091 4 66 31.7572 133.137 65 973 390 26 49
1945253N08157 1945 58 WP MM IDA 1945-09-17 12:00:00 TS 32.6000 134.300 main 67 28 O________OOO__ jtwc_wp WP181945 32.6000 134.300 65 1 32.6000 134.300 TC 65 32.6000 134.300 4 65 32.6000 134.300 65 974 420 26 47
1945253N08157 1945 58 WP MM IDA 1945-09-17 15:00:00 TS 33.4876 135.376 main 14 0 P________PPP__ WP181945 33.5057 135.387 62 0 33.5057 135.387 TC 62 33.4331 135.340 4 62 33.5057 135.387 62 975 450 25 46
1945253N08157 1945 58 WP MM IDA 1945-09-17 18:00:00 TS 34.3650 136.480 main 0 0 O________OPO__ jtwc_wp WP181945 34.4000 136.500 60 0 34.4000 136.500 TC 60 34.2598 136.419 4 60 34.4000 136.500 60 976 480 25 48
1945253N08157 1945 58 WP MM IDA 1945-09-17 21:00:00 TS 35.1623 137.626 main 0 0 P________PPP__ WP181945 35.1807 137.630 57 0 35.1807 137.630 TC 57 35.1073 137.612 4 57 35.1807 137.630 57 977 480 26 52
1945253N08157 1945 58 WP MM IDA 1945-09-18 00:00:00 TS 36.0000 139.000 main 0 0 O________OOO__ jtwc_wp WP181945 36.0000 139.000 55 0 36.0000 139.000 TC 55 36.0000 139.000 2 55 36.0000 139.000 55 978 480 31 55
1945253N08157 1945 58 WP MM IDA 1945-09-18 03:00:00 TS 36.9783 140.810 main 0 0 P________PPP__ WP181945 36.9790 140.844 55 0 36.9790 140.844 TC 55 36.9760 140.706 2 55 36.9790 140.844 55 978 480 37 57
1945253N08157 1945 58 WP MM IDA 1945-09-18 06:00:00 TS 37.9945 142.833 main 118 118 O________OPO__ jtwc_wp WP181945 38.0000 142.900 55 0 38.0000 142.900 TC 55 37.9781 142.632 2 55 38.0000 142.900 55 978 480 37 58
1945253N08157 1945 58 WP MM IDA 1945-09-18 09:00:00 TS 38.9790 144.808 main 238 238 P________PPP__ WP181945 38.9838 144.846 55 0 38.9838 144.846 TC 55 38.9647 144.694 2 55 38.9838 144.846 55 978 420 36 58
1945253N08157 1945 58 WP MM IDA 1945-09-18 12:00:00 TS 39.9000 146.800 main 372 369 O________OOO__ jtwc_wp WP181945 39.9000 146.800 55 0 39.9000 146.800 TC 55 39.9000 146.800 2 55 39.9000 146.800 55 978 360 35 61
1945253N08157 1945 58 WP MM IDA 1945-09-18 15:00:00 TS 40.6872 148.813 main 388 388 P________PPP__ WP181945 40.6686 148.786 55 0 40.6686 148.786 TC 55 40.7427 148.896 2 55 40.6686 148.786 55 977 300 34 63
1945253N08157 1945 58 WP MM IDA 1945-09-18 18:00:00 TS 41.4329 150.850 main 462 450 O________OPO__ jtwc_wp WP181945 41.4000 150.800 55 0 41.4000 150.800 TC 55 41.5318 151.002 2 55 41.4000 150.800 55 977 240 35 64
1945253N08157 1945 58 WP MM IDA 1945-09-18 21:00:00 TS 42.2259 152.984 main 460 456 P________PPP__ WP181945 42.2081 152.960 55 0 42.2081 152.960 TC 55 42.2790 153.057 2 55 42.2081 152.960 55 976 180 34 63
1945253N08157 1945 58 WP MM IDA 1945-09-19 00:00:00 TS 43.0000 155.000 main 498 498 O________OOO__ jtwc_wp WP181945 43.0000 155.000 55 0 43.0000 155.000 TC 55 43.0000 155.000 2 55 43.0000 155.000 55 976 120 31 61
1945253N08157 1945 58 WP MM IDA 1945-09-19 03:00:00 TS 43.7037 156.700 main 561 561 P________PPP__ WP181945 43.7085 156.668 52 0 43.7085 156.668 TC 52 43.6893 156.794 2 52 43.7085 156.668 52 976 150 27 59
1945253N08157 1945 58 WP MM IDA 1945-09-19 06:00:00 TS 44.3931 158.266 main 643 640 O________OPO__ jtwc_wp WP181945 44.4000 158.200 50 0 44.4000 158.200 TC 50 44.3725 158.464 2 50 44.4000 158.200 50 976 180 27 59
1945253N08157 1945 58 WP MM IDA 1945-09-19 09:00:00 TS 45.0860 159.940 main 639 637 P________PPP__ WP181945 45.0913 159.904 47 0 45.0913 159.904 TC 47 45.0701 160.051 2 47 45.0913 159.904 47 976 210 27 59
1945253N08157 1945 58 WP MM IDA 1945-09-19 12:00:00 TS 45.8000 161.600 main 645 645 O________OOO__ jtwc_wp WP181945 45.8000 161.600 45 0 45.8000 161.600 TC 45 45.8000 161.600 2 45 45.8000 161.600 45 977 240 27 57
1945253N08157 1945 58 WP MM IDA 1945-09-19 15:00:00 TS 46.5366 163.204 main 675 674 P________PPP__ WP181945 46.5247 163.221 45 0 46.5247 163.221 TC 45 46.5723 163.154 2 43 46.5247 163.221 45 977 270 27 55
1945253N08157 1945 58 WP MM IDA 1945-09-19 18:00:00 TS 47.3161 164.785 main 688 682 O________OPO__ jtwc_wp WP181945 47.3000 164.800 45 0 47.3000 164.800 TC 45 47.3751 164.731 2 42 47.3000 164.800 45 978 300 27 52
1945253N08157 1945 58 WP MM IDA 1945-09-19 21:00:00 TS 48.2262 166.343 main 695 689 P________PPP__ WP181945 48.2574 166.333 42 0 48.2574 166.333 TC 42 48.1906 166.343 2 41 48.1372 166.383 42 979 300 27 52
1945253N08157 1945 58 WP MM IDA 1945-09-20 00:00:00 TS 49.0000 168.000 main 712 712 O________OOO__ jtwc_wp WP181945 49.0000 168.000 40 0 49.0000 168.000 TC 40 49.0000 168.000 2 40 49.0000 168.000 40 980 300 26 71
1945253N08157 1945 58 WP MM IDA 1945-09-20 03:00:00 TS 49.0582 170.109 main 823 823 P________P____ WP181945 49.0582 170.109 45 0 49.0582 170.109 TC 45 2 26 90
1945253N08157 1945 58 WP MM IDA 1945-09-20 06:00:00 TS 49.0000 172.000 main 924 924 O________O____ jtwc_wp WP181945 49.0000 172.000 50 0 49.0000 172.000 TC 50 2 20 80
1945253N08157 1945 58 WP MM IDA 1945-09-20 09:00:00 TS 49.4189 173.148 main 949 949 P________P____ WP181945 49.4189 173.148 50 0 49.4189 173.148 TC 50 2 16 52
1945253N08157 1945 58 WP MM IDA 1945-09-20 12:00:00 TS 50.0000 174.000 main 956 955 O________O____ jtwc_wp WP181945 50.0000 174.000 50 0 50.0000 174.000 TC 50 16 46
1945253N08157 1945 58 WP MM IDA 1945-09-20 15:00:00 TS 50.5292 174.947 main 975 975 P________P____ WP181945 50.5292 174.947 50 0 50.5292 174.947 TC 50 16 52
1945253N08157 1945 58 WP MM IDA 1945-09-20 18:00:00 TS 51.0000 176.000 main 1005 O________O____ jtwc_wp WP181945 51.0000 176.000 50 0 51.0000 176.000 TC 50 16 55

Digital Typhoon Data and Search

About IBTrACS Database

This database is a web-friendly format of International Best Track Archive for Climate Stewardship (IBTrACS), a global best track data archive curated by NOAA dating back to 1842.

Updated: 2021-12-06